David, Panama
Current Conditions -  °F | °C
As of 3:00 PM on Tuesday 21 Oct 2014 (Local Time) from MRPV Reporting Station
Scattered Clouds Scattered Clouds  
Wind Chill: 77°   Ceiling: Unl
Heat Index: 79°   Visibility: 6mi
Dew Point: 66°   Wind: 12mph
Humidity: 69%   Direction: 280°W
Pressure: 29.92"   Gusts: NA
Location:  8.44°N, 82.43°W
Report Text: MRPV 212000Z 28010KT 9999 FEW015TCU SCT025 SCT250 25/19 A2992 NOSIG
Loading
Personal Weather Stations






























Interactive Weather Map
Tropical Storm Tracking
New forecast layout! Learn more

10-Day Weather Forecast

Advertisements
Track Severe Weather on mobile